Pacific Dawn — 2AGH7 — position and weather

sailwx.info

Track history (hours):
 
Tides and Currents Weather Stations Pressure Air Temp Water Temp Dewpoint Dewpoint Depression Visibility Wind Speed Wind Dir Waves Ship Positions

Pacific Dawn

Last reported at 2015-Jan-30 02:32 UTC. Time now 2015-Jan-30 02:44 UTC.
Position S 27°10' E 153°20'.

Length 245 m; draft 8.3 m.

Type: Passenger vessel. MMSI: 235059368.

Date/timePositionNaut miles runAvg speedWind from/ knotsBaromVisibWave heightAir tempDewpointWater temp
2015-Jan-30 02:32S 27°10' E 153°20'0 0.0
2015-Jan-30 01:32S 27°10' E 153°20'0 0.0
2015-Jan-30 00:32S 27°10' E 153°20'0 0.0
2015-Jan-29 23:32S 27°10' E 153°20'0 0.1
2015-Jan-29 22:32S 27°10' E 153°20'0 0.1
2015-Jan-29 21:32S 27°10' E 153°20'1010.0
2015-Jan-29 20:34S 27°02' E 153°15'1414.4
2015-Jan-29 19:33S 26°48' E 153°11'1010.3
2015-Jan-29 18:33S 26°40' E 153°17'28 4.5
2015-Jan-29 12:19S 26°45' E 153°48'26 1.2
2015-Jan-28 14:10S 26°20' E 153°45'24 9.4
2015-Jan-28 11:33S 26°37' E 153°26'1312.7
2015-Jan-28 10:33S 26°41' E 153°12'1312.9
2015-Jan-28 09:33S 26°54' E 153°11'1717.5
2015-Jan-28 08:34S 27°09' E 153°21'1515.4
2015-Jan-28 07:33S 27°21' E 153°11'7 7.4
2015-Jan-28 06:33S 27°27' E 153°05'1 0.9
2015-Jan-28 05:31S 27°26' E 153°04'0 0.0
2015-Jan-28 04:31S 27°26' E 153°04'0 0.0
2015-Jan-28 03:25S 27°26' E 153°04'0 0.0
2015-Jan-28 02:28S 27°26' E 153°04'0 0.0
2015-Jan-28 01:31S 27°26' E 153°04'0 0.0
2015-Jan-28 00:31S 27°26' E 153°04'0 0.0
2015-Jan-27 23:31S 27°26' E 153°04'0 0.0
2015-Jan-27 22:31S 27°26' E 153°04'0 0.0
2015-Jan-27 21:33S 27°26' E 153°04'4 4.5
2015-Jan-27 20:33S 27°25' E 153°09'1010.4
2015-Jan-27 19:33S 27°16' E 153°16'1312.6
2015-Jan-27 18:33S 27°04' E 153°18'1615.6
2015-Jan-27 17:33S 26°51' E 153°09'1010.5
2015-Jan-27 16:34S 26°46' E 153°20'2019.6
2015-Jan-27 15:33S 26°58' E 153°37'1918.7
2015-Jan-27 14:33S 27°13' E 153°50'2118.0
2015-Jan-27 13:23S 27°31' E 154°03'1517.6
2015-Jan-27 12:33S 27°46' E 154°03'3417.1
2015-Jan-27 10:32S 28°20' E 154°03'25816.7
2015-Jan-26 19:07S 32°32' E 152°59'814.8
2015-Jan-26 18:33S 32°40' E 152°56'1514.6
2015-Jan-26 17:33S 32°49' E 152°43'1414.2
2015-Jan-26 16:33S 32°59' E 152°31'1414.1
2015-Jan-26 15:33S 33°09' E 152°19'1414.2
2015-Jan-26 14:33S 33°17' E 152°05'5 0.2
2015-Jan-25 15:15S 33°22' E 152°04'1420.9
2015-Jan-25 14:34S 33°13' E 152°17'2121.1
2015-Jan-25 13:33S 32°59' E 152°36'2120.8
2015-Jan-25 12:33S 32°46' E 152°56'12 9.2
2015-Jan-25 11:14S 32°35' E 153°01'1014.8
2015-Jan-25 10:34S 32°37' E 152°50'1311.0
2015-Jan-25 09:24S 32°24' E 152°50'1213.8
2015-Jan-25 08:33S 32°14' E 152°55'1413.5
2015-Jan-25 07:31S 32°00' E 153°01'1313.9
2015-Jan-25 06:33S 31°48' E 153°06'20814.6
2015-Jan-24 16:22S 28°24' E 153°53'1517.5
2015-Jan-24 15:32S 28°09' E 153°52'1616.3
2015-Jan-24 14:33S 27°53' E 153°51'1515.3
2015-Jan-24 13:33S 27°38' E 153°50'1515.1
2015-Jan-24 12:33S 27°23' E 153°49'1414.3
2015-Jan-24 11:33S 27°09' E 153°45'1313.3
2015-Jan-24 10:33S 26°58' E 153°37'1413.8
2015-Jan-24 09:34S 26°50' E 153°25'1413.6
2015-Jan-24 08:34S 26°42' E 153°12'1312.7
2015-Jan-24 07:33S 26°55' E 153°12'1717.5
2015-Jan-24 06:33S 27°11' E 153°21'1515.1
2015-Jan-24 05:33S 27°22' E 153°10'6 6.4
2015-Jan-24 04:33S 27°27' E 153°04'0 0.3
2015-Jan-24 03:31S 27°26' E 153°04'0 0.0
2015-Jan-24 02:31S 27°26' E 153°04'0 0.0
2015-Jan-24 01:31S 27°26' E 153°04'0 0.0
2015-Jan-24 00:31S 27°26' E 153°04'0 0.0
2015-Jan-23 23:31S 27°26' E 153°04'0 0.0
2015-Jan-23 22:31S 27°26' E 153°04'0 0.0
2015-Jan-23 21:28S 27°26' E 153°04'0 0.0
2015-Jan-23 20:31S 27°26' E 153°04'0 0.0
2015-Jan-23 19:31S 27°26' E 153°04'5 4.9
2015-Jan-23 18:34S 27°25' E 153°09'1111.4
2015-Jan-23 17:34S 27°16' E 153°17'1313.0
2015-Jan-23 16:33S 27°03' E 153°16'1514.9
2015-Jan-23 15:33S 26°49' E 153°10'9314.1
2015-Jan-23 09:00S 25°18' E 153°30'   290 / 51003.110.8 28.025.228.0
Track history (hours):
 
Tides and Currents Weather Stations Pressure Air Temp Water Temp Dewpoint Dewpoint Depression Visibility Wind Speed Wind Dir Waves Ship Positions

Pacific Dawn

Last reported at 2015-Jan-30 02:32 UTC. Time now 2015-Jan-30 02:44 UTC.
Position S 27°10' E 153°20'.

Length 245 m; draft 8.3 m.

Type: Passenger vessel. MMSI: 235059368.

Date/timePositionNaut miles runAvg speedWind from/ knotsBaromVisibWave heightAir tempDewpointWater temp
2015-Jan-30 02:32S 27°10' E 153°20'0 0.0
2015-Jan-30 01:32S 27°10' E 153°20'0 0.0
2015-Jan-30 00:32S 27°10' E 153°20'0 0.0
2015-Jan-29 23:32S 27°10' E 153°20'0 0.1
2015-Jan-29 22:32S 27°10' E 153°20'0 0.1
2015-Jan-29 21:32S 27°10' E 153°20'1010.0
2015-Jan-29 20:34S 27°02' E 153°15'1414.4
2015-Jan-29 19:33S 26°48' E 153°11'1010.3
2015-Jan-29 18:33S 26°40' E 153°17'28 4.5
2015-Jan-29 12:19S 26°45' E 153°48'26 1.2
2015-Jan-28 14:10S 26°20' E 153°45'24 9.4
2015-Jan-28 11:33S 26°37' E 153°26'1312.7
2015-Jan-28 10:33S 26°41' E 153°12'1312.9
2015-Jan-28 09:33S 26°54' E 153°11'1717.5
2015-Jan-28 08:34S 27°09' E 153°21'1515.4
2015-Jan-28 07:33S 27°21' E 153°11'7 7.4
2015-Jan-28 06:33S 27°27' E 153°05'1 0.9
2015-Jan-28 05:31S 27°26' E 153°04'0 0.0
2015-Jan-28 04:31S 27°26' E 153°04'0 0.0
2015-Jan-28 03:25S 27°26' E 153°04'0 0.0
2015-Jan-28 02:28S 27°26' E 153°04'0 0.0
2015-Jan-28 01:31S 27°26' E 153°04'0 0.0
2015-Jan-28 00:31S 27°26' E 153°04'0 0.0
2015-Jan-27 23:31S 27°26' E 153°04'0 0.0
2015-Jan-27 22:31S 27°26' E 153°04'0 0.0
2015-Jan-27 21:33S 27°26' E 153°04'4 4.5
2015-Jan-27 20:33S 27°25' E 153°09'1010.4
2015-Jan-27 19:33S 27°16' E 153°16'1312.6
2015-Jan-27 18:33S 27°04' E 153°18'1615.6
2015-Jan-27 17:33S 26°51' E 153°09'1010.5
2015-Jan-27 16:34S 26°46' E 153°20'2019.6
2015-Jan-27 15:33S 26°58' E 153°37'1918.7
2015-Jan-27 14:33S 27°13' E 153°50'2118.0
2015-Jan-27 13:23S 27°31' E 154°03'1517.6
2015-Jan-27 12:33S 27°46' E 154°03'3417.1
2015-Jan-27 10:32S 28°20' E 154°03'25816.7
2015-Jan-26 19:07S 32°32' E 152°59'814.8
2015-Jan-26 18:33S 32°40' E 152°56'1514.6
2015-Jan-26 17:33S 32°49' E 152°43'1414.2
2015-Jan-26 16:33S 32°59' E 152°31'1414.1
2015-Jan-26 15:33S 33°09' E 152°19'1414.2
2015-Jan-26 14:33S 33°17' E 152°05'5 0.2
2015-Jan-25 15:15S 33°22' E 152°04'1420.9
2015-Jan-25 14:34S 33°13' E 152°17'2121.1
2015-Jan-25 13:33S 32°59' E 152°36'2120.8
2015-Jan-25 12:33S 32°46' E 152°56'12 9.2
2015-Jan-25 11:14S 32°35' E 153°01'1014.8
2015-Jan-25 10:34S 32°37' E 152°50'1311.0
2015-Jan-25 09:24S 32°24' E 152°50'1213.8
2015-Jan-25 08:33S 32°14' E 152°55'1413.5
2015-Jan-25 07:31S 32°00' E 153°01'1313.9
2015-Jan-25 06:33S 31°48' E 153°06'20814.6
2015-Jan-24 16:22S 28°24' E 153°53'1517.5
2015-Jan-24 15:32S 28°09' E 153°52'1616.3
2015-Jan-24 14:33S 27°53' E 153°51'1515.3
2015-Jan-24 13:33S 27°38' E 153°50'1515.1
2015-Jan-24 12:33S 27°23' E 153°49'1414.3
2015-Jan-24 11:33S 27°09' E 153°45'1313.3
2015-Jan-24 10:33S 26°58' E 153°37'1413.8
2015-Jan-24 09:34S 26°50' E 153°25'1413.6
2015-Jan-24 08:34S 26°42' E 153°12'1312.7
2015-Jan-24 07:33S 26°55' E 153°12'1717.5
2015-Jan-24 06:33S 27°11' E 153°21'1515.1
2015-Jan-24 05:33S 27°22' E 153°10'6 6.4
2015-Jan-24 04:33S 27°27' E 153°04'0 0.3
2015-Jan-24 03:31S 27°26' E 153°04'0 0.0
2015-Jan-24 02:31S 27°26' E 153°04'0 0.0
2015-Jan-24 01:31S 27°26' E 153°04'0 0.0
2015-Jan-24 00:31S 27°26' E 153°04'0 0.0
2015-Jan-23 23:31S 27°26' E 153°04'0 0.0
2015-Jan-23 22:31S 27°26' E 153°04'0 0.0
2015-Jan-23 21:28S 27°26' E 153°04'0 0.0
2015-Jan-23 20:31S 27°26' E 153°04'0 0.0
2015-Jan-23 19:31S 27°26' E 153°04'5 4.9
2015-Jan-23 18:34S 27°25' E 153°09'1111.4
2015-Jan-23 17:34S 27°16' E 153°17'1313.0
2015-Jan-23 16:33S 27°03' E 153°16'1514.9
2015-Jan-23 15:33S 26°49' E 153°10'9314.1
2015-Jan-23 09:00S 25°18' E 153°30'   290 / 51003.110.8 28.025.228.0

Dump ship's entire track history